sensor_id;sensor_type;location;lat;lon;timestamp;P1;durP1;ratioP1;P2;durP2;ratioP2
20036;SDS011;10179;42.640;23.312;2023-08-30T00:00:09;13.90;;;8.40;;
20036;SDS011;10179;42.640;23.312;2023-08-30T00:02:35;13.77;;;9.68;;
20036;SDS011;10179;42.640;23.312;2023-08-30T00:05:02;20.80;;;13.60;;
20036;SDS011;10179;42.640;23.312;2023-08-30T00:07:28;15.45;;;9.20;;
20036;SDS011;10179;42.640;23.312;2023-08-30T00:09:54;14.35;;;8.73;;
20036;SDS011;10179;42.640;23.312;2023-08-30T00:12:19;15.60;;;8.95;;
20036;SDS011;10179;42.640;23.312;2023-08-30T00:14:45;11.65;;;7.43;;
20036;SDS011;10179;42.640;23.312;2023-08-30T00:17:10;13.02;;;6.75;;
20036;SDS011;10179;42.640;23.312;2023-08-30T00:19:35;15.00;;;6.88;;
20036;SDS011;10179;42.640;23.312;2023-08-30T00:22:01;8.60;;;5.80;;
20036;SDS011;10179;42.640;23.312;2023-08-30T00:24:26;9.27;;;5.45;;
20036;SDS011;10179;42.640;23.312;2023-08-30T00:26:53;9.80;;;5.20;;
20036;SDS011;10179;42.640;23.312;2023-08-30T00:29:18;8.82;;;5.43;;
20036;SDS011;10179;42.640;23.312;2023-08-30T00:31:44;6.93;;;4.85;;
20036;SDS011;10179;42.640;23.312;2023-08-30T00:34:09;8.23;;;4.95;;
20036;SDS011;10179;42.640;23.312;2023-08-30T00:36:35;15.60;;;5.38;;
20036;SDS011;10179;42.640;23.312;2023-08-30T00:39:00;8.20;;;5.22;;
20036;SDS011;10179;42.640;23.312;2023-08-30T00:41:27;10.25;;;5.07;;
20036;SDS011;10179;42.640;23.312;2023-08-30T00:43:52;12.20;;;4.70;;
20036;SDS011;10179;42.640;23.312;2023-08-30T00:46:17;7.70;;;4.82;;
20036;SDS011;10179;42.640;23.312;2023-08-30T00:48:43;10.43;;;4.93;;
20036;SDS011;10179;42.640;23.312;2023-08-30T00:51:09;9.15;;;5.55;;
20036;SDS011;10179;42.640;23.312;2023-08-30T00:53:35;7.40;;;4.95;;
20036;SDS011;10179;42.640;23.312;2023-08-30T00:56:01;8.88;;;5.75;;
20036;SDS011;10179;42.640;23.312;2023-08-30T00:58:27;10.35;;;5.45;;
20036;SDS011;10179;42.640;23.312;2023-08-30T01:00:53;10.65;;;4.80;;
20036;SDS011;10179;42.640;23.312;2023-08-30T01:03:18;8.20;;;4.90;;
20036;SDS011;10179;42.640;23.312;2023-08-30T01:05:46;9.98;;;4.82;;
20036;SDS011;10179;42.640;23.312;2023-08-30T01:08:12;7.68;;;4.68;;
20036;SDS011;10179;42.640;23.312;2023-08-30T01:10:44;6.07;;;4.10;;
20036;SDS011;10179;42.640;23.312;2023-08-30T01:13:14;8.98;;;4.30;;
20036;SDS011;10179;42.640;23.312;2023-08-30T01:15:45;7.07;;;4.13;;
20036;SDS011;10179;42.640;23.312;2023-08-30T01:18:12;8.55;;;4.28;;
20036;SDS011;10179;42.640;23.312;2023-08-30T01:20:39;8.73;;;4.20;;
20036;SDS011;10179;42.640;23.312;2023-08-30T01:29:18;9.90;;;4.65;;
20036;SDS011;10179;42.640;23.312;2023-08-30T01:31:45;11.65;;;4.70;;
20036;SDS011;10179;42.640;23.312;2023-08-30T01:34:13;7.85;;;4.57;;
20036;SDS011;10179;42.640;23.312;2023-08-30T01:36:40;9.68;;;4.72;;
20036;SDS011;10179;42.640;23.312;2023-08-30T01:39:08;9.15;;;5.00;;
20036;SDS011;10179;42.640;23.312;2023-08-30T01:41:36;13.98;;;5.07;;
20036;SDS011;10179;42.640;23.312;2023-08-30T01:44:02;9.73;;;5.20;;
20036;SDS011;10179;42.640;23.312;2023-08-30T01:46:31;5.93;;;4.18;;
20036;SDS011;10179;42.640;23.312;2023-08-30T01:48:58;10.13;;;5.80;;
20036;SDS011;10179;42.640;23.312;2023-08-30T01:51:25;11.43;;;5.05;;
20036;SDS011;10179;42.640;23.312;2023-08-30T01:53:51;8.15;;;4.53;;
20036;SDS011;10179;42.640;23.312;2023-08-30T01:56:19;12.20;;;4.90;;
20036;SDS011;10179;42.640;23.312;2023-08-30T01:58:44;9.60;;;5.28;;
20036;SDS011;10179;42.640;23.312;2023-08-30T02:01:10;7.80;;;4.40;;
20036;SDS011;10179;42.640;23.312;2023-08-30T02:03:35;11.20;;;5.35;;
20036;SDS011;10179;42.640;23.312;2023-08-30T02:06:08;8.93;;;4.97;;
20036;SDS011;10179;42.640;23.312;2023-08-30T02:08:47;10.68;;;5.57;;
20036;SDS011;10179;42.640;23.312;2023-08-30T02:11:19;10.73;;;4.85;;
20036;SDS011;10179;42.640;23.312;2023-08-30T02:13:52;10.98;;;4.82;;
20036;SDS011;10179;42.640;23.312;2023-08-30T02:16:18;7.97;;;4.78;;
20036;SDS011;10179;42.640;23.312;2023-08-30T02:18:45;10.50;;;4.90;;
20036;SDS011;10179;42.640;23.312;2023-08-30T02:21:11;9.85;;;6.35;;
20036;SDS011;10179;42.640;23.312;2023-08-30T02:23:36;16.65;;;5.57;;
20036;SDS011;10179;42.640;23.312;2023-08-30T02:26:02;10.15;;;5.57;;
20036;SDS011;10179;42.640;23.312;2023-08-30T02:28:28;11.52;;;5.68;;
20036;SDS011;10179;42.640;23.312;2023-08-30T02:30:54;10.50;;;4.88;;
20036;SDS011;10179;42.640;23.312;2023-08-30T02:33:19;8.27;;;5.45;;
20036;SDS011;10179;42.640;23.312;2023-08-30T02:35:45;8.38;;;5.10;;
20036;SDS011;10179;42.640;23.312;2023-08-30T02:38:11;10.25;;;5.20;;
20036;SDS011;10179;42.640;23.312;2023-08-30T02:40:36;10.98;;;5.47;;
20036;SDS011;10179;42.640;23.312;2023-08-30T02:43:01;11.07;;;5.95;;
20036;SDS011;10179;42.640;23.312;2023-08-30T02:45:27;8.98;;;5.28;;
20036;SDS011;10179;42.640;23.312;2023-08-30T02:47:54;8.57;;;4.95;;
20036;SDS011;10179;42.640;23.312;2023-08-30T02:50:22;8.13;;;5.43;;
20036;SDS011;10179;42.640;23.312;2023-08-30T02:52:47;16.13;;;5.60;;
20036;SDS011;10179;42.640;23.312;2023-08-30T02:55:13;17.52;;;5.55;;
20036;SDS011;10179;42.640;23.312;2023-08-30T02:57:38;10.30;;;5.10;;
20036;SDS011;10179;42.640;23.312;2023-08-30T03:00:04;11.93;;;5.32;;
20036;SDS011;10179;42.640;23.312;2023-08-30T03:02:31;12.07;;;5.03;;
20036;SDS011;10179;42.640;23.312;2023-08-30T03:04:58;7.50;;;5.20;;
20036;SDS011;10179;42.640;23.312;2023-08-30T03:07:24;8.57;;;4.93;;
20036;SDS011;10179;42.640;23.312;2023-08-30T03:09:52;10.68;;;5.28;;
20036;SDS011;10179;42.640;23.312;2023-08-30T03:12:18;9.65;;;5.20;;
20036;SDS011;10179;42.640;23.312;2023-08-30T03:14:43;19.33;;;11.13;;
20036;SDS011;10179;42.640;23.312;2023-08-30T03:17:09;9.13;;;4.80;;
20036;SDS011;10179;42.640;23.312;2023-08-30T03:19:34;10.18;;;5.78;;
20036;SDS011;10179;42.640;23.312;2023-08-30T03:22:00;12.77;;;5.97;;
20036;SDS011;10179;42.640;23.312;2023-08-30T03:24:25;11.73;;;5.47;;
20036;SDS011;10179;42.640;23.312;2023-08-30T03:26:51;10.80;;;4.40;;
20036;SDS011;10179;42.640;23.312;2023-08-30T03:29:16;9.90;;;4.25;;
20036;SDS011;10179;42.640;23.312;2023-08-30T03:31:42;8.00;;;3.72;;
20036;SDS011;10179;42.640;23.312;2023-08-30T03:34:08;7.05;;;4.28;;
20036;SDS011;10179;42.640;23.312;2023-08-30T03:36:34;10.57;;;3.92;;
20036;SDS011;10179;42.640;23.312;2023-08-30T03:39:00;9.30;;;4.00;;
20036;SDS011;10179;42.640;23.312;2023-08-30T03:41:25;8.88;;;4.10;;
20036;SDS011;10179;42.640;23.312;2023-08-30T03:43:51;6.88;;;4.30;;
20036;SDS011;10179;42.640;23.312;2023-08-30T03:46:16;9.73;;;4.57;;
20036;SDS011;10179;42.640;23.312;2023-08-30T03:48:42;14.50;;;4.50;;
20036;SDS011;10179;42.640;23.312;2023-08-30T03:51:07;8.13;;;4.20;;
20036;SDS011;10179;42.640;23.312;2023-08-30T03:53:33;13.77;;;4.70;;
20036;SDS011;10179;42.640;23.312;2023-08-30T03:55:58;10.70;;;4.45;;
20036;SDS011;10179;42.640;23.312;2023-08-30T03:58:24;15.25;;;4.40;;
20036;SDS011;10179;42.640;23.312;2023-08-30T04:00:50;13.38;;;4.53;;
20036;SDS011;10179;42.640;23.312;2023-08-30T04:03:15;11.55;;;4.40;;
20036;SDS011;10179;42.640;23.312;2023-08-30T04:05:41;11.88;;;3.95;;
20036;SDS011;10179;42.640;23.312;2023-08-30T04:08:07;8.93;;;4.38;;
20036;SDS011;10179;42.640;23.312;2023-08-30T04:10:40;6.20;;;3.67;;
20036;SDS011;10179;42.640;23.312;2023-08-30T04:13:06;10.85;;;4.43;;
20036;SDS011;10179;42.640;23.312;2023-08-30T04:15:33;12.65;;;4.20;;
20036;SDS011;10179;42.640;23.312;2023-08-30T04:18:00;6.78;;;4.15;;
20036;SDS011;10179;42.640;23.312;2023-08-30T04:20:25;10.73;;;4.32;;
20036;SDS011;10179;42.640;23.312;2023-08-30T04:22:51;15.75;;;5.00;;
20036;SDS011;10179;42.640;23.312;2023-08-30T04:25:18;10.23;;;4.82;;
20036;SDS011;10179;42.640;23.312;2023-08-30T04:27:43;12.43;;;4.80;;
20036;SDS011;10179;42.640;23.312;2023-08-30T04:30:09;10.05;;;4.53;;
20036;SDS011;10179;42.640;23.312;2023-08-30T04:32:35;9.70;;;4.88;;
20036;SDS011;10179;42.640;23.312;2023-08-30T04:35:02;12.95;;;4.68;;
20036;SDS011;10179;42.640;23.312;2023-08-30T04:37:30;13.35;;;4.65;;
20036;SDS011;10179;42.640;23.312;2023-08-30T04:39:56;8.95;;;4.30;;
20036;SDS011;10179;42.640;23.312;2023-08-30T04:42:22;11.85;;;4.57;;
20036;SDS011;10179;42.640;23.312;2023-08-30T04:44:47;10.30;;;4.68;;
20036;SDS011;10179;42.640;23.312;2023-08-30T04:47:13;14.80;;;4.72;;
20036;SDS011;10179;42.640;23.312;2023-08-30T04:49:38;10.50;;;4.05;;
20036;SDS011;10179;42.640;23.312;2023-08-30T04:52:04;9.50;;;3.78;;
20036;SDS011;10179;42.640;23.312;2023-08-30T04:54:29;8.93;;;3.85;;
20036;SDS011;10179;42.640;23.312;2023-08-30T04:56:55;9.63;;;3.92;;
20036;SDS011;10179;42.640;23.312;2023-08-30T04:59:21;12.52;;;3.15;;
20036;SDS011;10179;42.640;23.312;2023-08-30T05:01:47;8.30;;;3.00;;
20036;SDS011;10179;42.640;23.312;2023-08-30T05:04:12;7.40;;;3.40;;
20036;SDS011;10179;42.640;23.312;2023-08-30T05:06:37;7.15;;;2.67;;
20036;SDS011;10179;42.640;23.312;2023-08-30T05:09:03;8.70;;;2.38;;
20036;SDS011;10179;42.640;23.312;2023-08-30T05:11:28;10.48;;;3.00;;
20036;SDS011;10179;42.640;23.312;2023-08-30T05:13:54;14.80;;;3.55;;
20036;SDS011;10179;42.640;23.312;2023-08-30T05:16:20;9.50;;;3.92;;
20036;SDS011;10179;42.640;23.312;2023-08-30T05:18:45;12.98;;;5.22;;
20036;SDS011;10179;42.640;23.312;2023-08-30T05:21:13;8.13;;;3.95;;
20036;SDS011;10179;42.640;23.312;2023-08-30T05:23:39;7.55;;;3.33;;
20036;SDS011;10179;42.640;23.312;2023-08-30T05:26:07;7.85;;;3.20;;
20036;SDS011;10179;42.640;23.312;2023-08-30T05:28:34;11.18;;;2.80;;
20036;SDS011;10179;42.640;23.312;2023-08-30T05:30:59;8.45;;;2.75;;
20036;SDS011;10179;42.640;23.312;2023-08-30T05:33:24;10.48;;;3.47;;
20036;SDS011;10179;42.640;23.312;2023-08-30T05:35:50;8.40;;;3.63;;
20036;SDS011;10179;42.640;23.312;2023-08-30T05:38:15;9.27;;;3.67;;
20036;SDS011;10179;42.640;23.312;2023-08-30T05:40:41;7.70;;;3.78;;
20036;SDS011;10179;42.640;23.312;2023-08-30T05:43:09;7.97;;;3.53;;
20036;SDS011;10179;42.640;23.312;2023-08-30T05:45:35;6.07;;;2.70;;
20036;SDS011;10179;42.640;23.312;2023-08-30T05:48:00;4.93;;;2.70;;
20036;SDS011;10179;42.640;23.312;2023-08-30T05:50:26;7.85;;;3.40;;
20036;SDS011;10179;42.640;23.312;2023-08-30T05:52:51;7.57;;;3.03;;
20036;SDS011;10179;42.640;23.312;2023-08-30T05:55:17;8.93;;;3.10;;
20036;SDS011;10179;42.640;23.312;2023-08-30T05:57:42;8.63;;;2.92;;
20036;SDS011;10179;42.640;23.312;2023-08-30T06:00:08;5.80;;;3.03;;
20036;SDS011;10179;42.640;23.312;2023-08-30T06:02:34;6.38;;;2.80;;
20036;SDS011;10179;42.640;23.312;2023-08-30T06:05:00;5.55;;;3.03;;
20036;SDS011;10179;42.640;23.312;2023-08-30T06:07:25;6.65;;;2.80;;
20036;SDS011;10179;42.640;23.312;2023-08-30T06:09:51;6.18;;;2.85;;
20036;SDS011;10179;42.640;23.312;2023-08-30T06:12:16;5.57;;;3.10;;
20036;SDS011;10179;42.640;23.312;2023-08-30T06:14:42;10.82;;;2.70;;
20036;SDS011;10179;42.640;23.312;2023-08-30T06:17:08;7.82;;;2.75;;
20036;SDS011;10179;42.640;23.312;2023-08-30T06:19:33;11.10;;;3.10;;
20036;SDS011;10179;42.640;23.312;2023-08-30T06:21:59;6.15;;;2.65;;
20036;SDS011;10179;42.640;23.312;2023-08-30T06:24:24;5.18;;;2.75;;
20036;SDS011;10179;42.640;23.312;2023-08-30T06:26:50;3.67;;;2.33;;
20036;SDS011;10179;42.640;23.312;2023-08-30T06:29:15;4.18;;;2.47;;
20036;SDS011;10179;42.640;23.312;2023-08-30T06:31:41;6.13;;;2.55;;
20036;SDS011;10179;42.640;23.312;2023-08-30T06:34:07;8.13;;;2.63;;
20036;SDS011;10179;42.640;23.312;2023-08-30T06:36:32;5.22;;;2.53;;
20036;SDS011;10179;42.640;23.312;2023-08-30T06:38:58;5.40;;;2.42;;
20036;SDS011;10179;42.640;23.312;2023-08-30T06:41:23;4.82;;;2.75;;
20036;SDS011;10179;42.640;23.312;2023-08-30T06:43:49;3.92;;;2.00;;
20036;SDS011;10179;42.640;23.312;2023-08-30T06:46:14;9.25;;;2.45;;
20036;SDS011;10179;42.640;23.312;2023-08-30T06:48:39;5.25;;;2.35;;
20036;SDS011;10179;42.640;23.312;2023-08-30T06:51:05;8.35;;;2.92;;
20036;SDS011;10179;42.640;23.312;2023-08-30T06:53:30;6.75;;;2.60;;
20036;SDS011;10179;42.640;23.312;2023-08-30T06:55:56;6.70;;;2.63;;
20036;SDS011;10179;42.640;23.312;2023-08-30T06:58:25;6.18;;;2.17;;
20036;SDS011;10179;42.640;23.312;2023-08-30T07:00:51;12.10;;;3.00;;
20036;SDS011;10179;42.640;23.312;2023-08-30T07:03:17;6.80;;;2.75;;
20036;SDS011;10179;42.640;23.312;2023-08-30T07:05:42;8.85;;;3.17;;
20036;SDS011;10179;42.640;23.312;2023-08-30T07:08:13;6.28;;;2.80;;
20036;SDS011;10179;42.640;23.312;2023-08-30T07:10:39;6.22;;;3.53;;
20036;SDS011;10179;42.640;23.312;2023-08-30T07:13:05;26.90;;;8.35;;
20036;SDS011;10179;42.640;23.312;2023-08-30T07:15:35;7.97;;;4.35;;
20036;SDS011;10179;42.640;23.312;2023-08-30T07:18:01;8.18;;;3.25;;
20036;SDS011;10179;42.640;23.312;2023-08-30T07:20:26;8.35;;;3.67;;
20036;SDS011;10179;42.640;23.312;2023-08-30T07:22:52;8.18;;;3.33;;
20036;SDS011;10179;42.640;23.312;2023-08-30T07:25:17;5.55;;;3.00;;
20036;SDS011;10179;42.640;23.312;2023-08-30T07:27:43;3.50;;;1.92;;
20036;SDS011;10179;42.640;23.312;2023-08-30T07:30:08;10.60;;;3.10;;
20036;SDS011;10179;42.640;23.312;2023-08-30T07:32:34;5.28;;;2.50;;
20036;SDS011;10179;42.640;23.312;2023-08-30T07:35:01;7.35;;;2.80;;
20036;SDS011;10179;42.640;23.312;2023-08-30T07:37:26;5.93;;;2.28;;
20036;SDS011;10179;42.640;23.312;2023-08-30T07:39:52;4.10;;;2.55;;
20036;SDS011;10179;42.640;23.312;2023-08-30T07:42:18;4.85;;;2.38;;
20036;SDS011;10179;42.640;23.312;2023-08-30T07:44:43;6.18;;;3.05;;
20036;SDS011;10179;42.640;23.312;2023-08-30T07:47:08;9.05;;;3.03;;
20036;SDS011;10179;42.640;23.312;2023-08-30T07:49:34;8.13;;;2.55;;
20036;SDS011;10179;42.640;23.312;2023-08-30T07:52:00;6.55;;;2.50;;
20036;SDS011;10179;42.640;23.312;2023-08-30T07:54:25;5.95;;;2.30;;
20036;SDS011;10179;42.640;23.312;2023-08-30T07:56:50;4.40;;;2.42;;
20036;SDS011;10179;42.640;23.312;2023-08-30T07:59:16;6.97;;;2.50;;
20036;SDS011;10179;42.640;23.312;2023-08-30T08:01:41;5.28;;;2.08;;
20036;SDS011;10179;42.640;23.312;2023-08-30T08:04:07;8.57;;;2.25;;
20036;SDS011;10179;42.640;23.312;2023-08-30T08:06:32;5.82;;;2.45;;
20036;SDS011;10179;42.640;23.312;2023-08-30T08:08:58;4.03;;;2.30;;
20036;SDS011;10179;42.640;23.312;2023-08-30T08:11:23;7.32;;;3.20;;
20036;SDS011;10179;42.640;23.312;2023-08-30T08:13:49;7.60;;;2.38;;
20036;SDS011;10179;42.640;23.312;2023-08-30T08:16:14;5.53;;;2.22;;
20036;SDS011;10179;42.640;23.312;2023-08-30T08:18:40;4.95;;;2.22;;
20036;SDS011;10179;42.640;23.312;2023-08-30T08:21:05;4.70;;;2.42;;
20036;SDS011;10179;42.640;23.312;2023-08-30T08:23:31;10.98;;;2.50;;
20036;SDS011;10179;42.640;23.312;2023-08-30T08:25:57;4.20;;;2.80;;
20036;SDS011;10179;42.640;23.312;2023-08-30T08:28:23;3.95;;;2.10;;
20036;SDS011;10179;42.640;23.312;2023-08-30T08:30:48;5.35;;;2.55;;
20036;SDS011;10179;42.640;23.312;2023-08-30T08:33:16;9.93;;;2.88;;
20036;SDS011;10179;42.640;23.312;2023-08-30T08:35:43;7.78;;;2.88;;
20036;SDS011;10179;42.640;23.312;2023-08-30T08:38:08;5.97;;;2.15;;
20036;SDS011;10179;42.640;23.312;2023-08-30T08:40:36;6.30;;;3.13;;
20036;SDS011;10179;42.640;23.312;2023-08-30T08:43:04;7.95;;;2.13;;
20036;SDS011;10179;42.640;23.312;2023-08-30T08:45:35;4.38;;;2.20;;
20036;SDS011;10179;42.640;23.312;2023-08-30T08:48:04;6.97;;;2.42;;
20036;SDS011;10179;42.640;23.312;2023-08-30T08:50:31;6.45;;;2.70;;
20036;SDS011;10179;42.640;23.312;2023-08-30T08:52:57;7.18;;;3.00;;
20036;SDS011;10179;42.640;23.312;2023-08-30T08:55:24;6.53;;;2.42;;
20036;SDS011;10179;42.640;23.312;2023-08-30T08:57:51;6.32;;;2.70;;
20036;SDS011;10179;42.640;23.312;2023-08-30T09:00:18;6.75;;;2.70;;
20036;SDS011;10179;42.640;23.312;2023-08-30T09:02:44;5.47;;;2.45;;
20036;SDS011;10179;42.640;23.312;2023-08-30T09:05:11;5.18;;;2.80;;
20036;SDS011;10179;42.640;23.312;2023-08-30T09:07:37;13.93;;;3.78;;
20036;SDS011;10179;42.640;23.312;2023-08-30T09:10:03;5.93;;;2.42;;
20036;SDS011;10179;42.640;23.312;2023-08-30T09:12:32;5.60;;;2.60;;
20036;SDS011;10179;42.640;23.312;2023-08-30T09:14:59;6.28;;;2.53;;
20036;SDS011;10179;42.640;23.312;2023-08-30T09:17:34;7.05;;;3.05;;
20036;SDS011;10179;42.640;23.312;2023-08-30T09:20:08;6.35;;;2.28;;
20036;SDS011;10179;42.640;23.312;2023-08-30T09:22:40;5.90;;;2.50;;
20036;SDS011;10179;42.640;23.312;2023-08-30T09:25:10;10.25;;;3.70;;
20036;SDS011;10179;42.640;23.312;2023-08-30T09:27:48;6.72;;;2.78;;
20036;SDS011;10179;42.640;23.312;2023-08-30T09:30:14;7.22;;;3.08;;
20036;SDS011;10179;42.640;23.312;2023-08-30T09:32:40;6.22;;;2.75;;
20036;SDS011;10179;42.640;23.312;2023-08-30T09:35:07;7.28;;;2.90;;
20036;SDS011;10179;42.640;23.312;2023-08-30T09:37:33;9.50;;;2.90;;
20036;SDS011;10179;42.640;23.312;2023-08-30T09:39:59;9.60;;;3.47;;
20036;SDS011;10179;42.640;23.312;2023-08-30T09:42:24;6.88;;;3.50;;
20036;SDS011;10179;42.640;23.312;2023-08-30T09:44:50;7.18;;;3.78;;
20036;SDS011;10179;42.640;23.312;2023-08-30T09:47:15;4.38;;;2.97;;
20036;SDS011;10179;42.640;23.312;2023-08-30T09:49:44;6.22;;;3.45;;
20036;SDS011;10179;42.640;23.312;2023-08-30T09:52:14;7.28;;;3.90;;
20036;SDS011;10179;42.640;23.312;2023-08-30T09:54:41;12.65;;;3.90;;
20036;SDS011;10179;42.640;23.312;2023-08-30T09:57:09;6.25;;;3.63;;
20036;SDS011;10179;42.640;23.312;2023-08-30T09:59:35;7.05;;;3.80;;
20036;SDS011;10179;42.640;23.312;2023-08-30T10:02:00;6.93;;;3.38;;
20036;SDS011;10179;42.640;23.312;2023-08-30T10:04:26;8.18;;;3.83;;
20036;SDS011;10179;42.640;23.312;2023-08-30T10:06:53;9.25;;;4.45;;
20036;SDS011;10179;42.640;23.312;2023-08-30T10:09:22;10.23;;;3.80;;
20036;SDS011;10179;42.640;23.312;2023-08-30T10:11:49;11.00;;;3.88;;
20036;SDS011;10179;42.640;23.312;2023-08-30T10:14:16;9.52;;;3.80;;
20036;SDS011;10179;42.640;23.312;2023-08-30T10:16:42;8.80;;;3.88;;
20036;SDS011;10179;42.640;23.312;2023-08-30T10:19:10;7.05;;;3.65;;
20036;SDS011;10179;42.640;23.312;2023-08-30T10:21:39;7.60;;;3.90;;
20036;SDS011;10179;42.640;23.312;2023-08-30T10:24:07;12.00;;;5.65;;
20036;SDS011;10179;42.640;23.312;2023-08-30T10:26:35;11.27;;;4.15;;
20036;SDS011;10179;42.640;23.312;2023-08-30T10:29:03;5.40;;;3.75;;
20036;SDS011;10179;42.640;23.312;2023-08-30T10:31:31;8.05;;;4.20;;
20036;SDS011;10179;42.640;23.312;2023-08-30T10:33:57;9.70;;;3.58;;
20036;SDS011;10179;42.640;23.312;2023-08-30T10:36:22;6.65;;;4.03;;
20036;SDS011;10179;42.640;23.312;2023-08-30T10:38:58;6.90;;;4.43;;
20036;SDS011;10179;42.640;23.312;2023-08-30T10:41:24;8.45;;;3.67;;
20036;SDS011;10179;42.640;23.312;2023-08-30T10:43:59;7.20;;;4.43;;
20036;SDS011;10179;42.640;23.312;2023-08-30T10:46:31;9.95;;;3.47;;
20036;SDS011;10179;42.640;23.312;2023-08-30T10:49:08;10.95;;;5.35;;
20036;SDS011;10179;42.640;23.312;2023-08-30T10:51:38;8.43;;;3.83;;
20036;SDS011;10179;42.640;23.312;2023-08-30T10:54:12;5.40;;;4.35;;
20036;SDS011;10179;42.640;23.312;2023-08-30T10:56:45;10.40;;;3.75;;
20036;SDS011;10179;42.640;23.312;2023-08-30T10:59:19;6.90;;;4.43;;
20036;SDS011;10179;42.640;23.312;2023-08-30T11:01:45;10.50;;;6.05;;
20036;SDS011;10179;42.640;23.312;2023-08-30T11:04:12;8.02;;;3.63;;
20036;SDS011;10179;42.640;23.312;2023-08-30T11:06:39;11.07;;;3.67;;
20036;SDS011;10179;42.640;23.312;2023-08-30T11:09:05;5.22;;;3.22;;
20036;SDS011;10179;42.640;23.312;2023-08-30T11:11:32;5.10;;;3.70;;
20036;SDS011;10179;42.640;23.312;2023-08-30T11:14:04;10.20;;;3.88;;
20036;SDS011;10179;42.640;23.312;2023-08-30T11:16:31;6.25;;;3.25;;
20036;SDS011;10179;42.640;23.312;2023-08-30T11:18:56;4.97;;;3.28;;
20036;SDS011;10179;42.640;23.312;2023-08-30T11:21:22;9.07;;;3.80;;
20036;SDS011;10179;42.640;23.312;2023-08-30T11:23:47;5.53;;;3.60;;
20036;SDS011;10179;42.640;23.312;2023-08-30T11:26:13;7.90;;;3.92;;
20036;SDS011;10179;42.640;23.312;2023-08-30T11:28:38;8.60;;;3.92;;
20036;SDS011;10179;42.640;23.312;2023-08-30T11:31:11;8.43;;;4.00;;
20036;SDS011;10179;42.640;23.312;2023-08-30T11:33:49;6.47;;;3.97;;
20036;SDS011;10179;42.640;23.312;2023-08-30T11:36:15;7.97;;;3.88;;
20036;SDS011;10179;42.640;23.312;2023-08-30T11:38:41;10.90;;;3.90;;
20036;SDS011;10179;42.640;23.312;2023-08-30T11:41:06;6.60;;;3.63;;
20036;SDS011;10179;42.640;23.312;2023-08-30T11:43:33;5.57;;;3.60;;
20036;SDS011;10179;42.640;23.312;2023-08-30T11:45:59;7.05;;;3.58;;
20036;SDS011;10179;42.640;23.312;2023-08-30T11:48:24;7.50;;;3.17;;
20036;SDS011;10179;42.640;23.312;2023-08-30T11:50:50;9.35;;;3.45;;
20036;SDS011;10179;42.640;23.312;2023-08-30T11:53:15;9.75;;;4.30;;
20036;SDS011;10179;42.640;23.312;2023-08-30T11:55:41;8.88;;;3.80;;
20036;SDS011;10179;42.640;23.312;2023-08-30T11:58:08;6.53;;;3.63;;
20036;SDS011;10179;42.640;23.312;2023-08-30T12:00:33;9.10;;;3.35;;
20036;SDS011;10179;42.640;23.312;2023-08-30T12:02:59;6.97;;;3.25;;
20036;SDS011;10179;42.640;23.312;2023-08-30T12:05:25;9.00;;;3.35;;
20036;SDS011;10179;42.640;23.312;2023-08-30T12:07:50;10.43;;;3.60;;
20036;SDS011;10179;42.640;23.312;2023-08-30T12:10:17;9.48;;;3.63;;
20036;SDS011;10179;42.640;23.312;2023-08-30T12:12:44;10.02;;;3.80;;
20036;SDS011;10179;42.640;23.312;2023-08-30T12:15:10;8.23;;;4.00;;
20036;SDS011;10179;42.640;23.312;2023-08-30T12:17:36;6.43;;;3.83;;
20036;SDS011;10179;42.640;23.312;2023-08-30T12:20:02;6.78;;;3.65;;
20036;SDS011;10179;42.640;23.312;2023-08-30T12:22:41;6.05;;;3.47;;
20036;SDS011;10179;42.640;23.312;2023-08-30T12:25:19;7.57;;;3.30;;
20036;SDS011;10179;42.640;23.312;2023-08-30T12:27:46;8.98;;;4.30;;
20036;SDS011;10179;42.640;23.312;2023-08-30T12:30:15;11.43;;;3.85;;
20036;SDS011;10179;42.640;23.312;2023-08-30T12:32:41;10.75;;;3.90;;
20036;SDS011;10179;42.640;23.312;2023-08-30T12:35:08;7.75;;;3.85;;
20036;SDS011;10179;42.640;23.312;2023-08-30T12:37:34;7.60;;;3.20;;
20036;SDS011;10179;42.640;23.312;2023-08-30T12:39:59;6.55;;;3.72;;
20036;SDS011;10179;42.640;23.312;2023-08-30T12:42:25;6.28;;;3.42;;
20036;SDS011;10179;42.640;23.312;2023-08-30T12:44:51;9.77;;;3.80;;
20036;SDS011;10179;42.640;23.312;2023-08-30T12:47:17;7.75;;;4.03;;
20036;SDS011;10179;42.640;23.312;2023-08-30T12:49:42;6.50;;;3.47;;
20036;SDS011;10179;42.640;23.312;2023-08-30T12:52:07;8.00;;;4.55;;
20036;SDS011;10179;42.640;23.312;2023-08-30T12:54:33;7.15;;;4.03;;
20036;SDS011;10179;42.640;23.312;2023-08-30T12:56:58;7.13;;;4.03;;
20036;SDS011;10179;42.640;23.312;2023-08-30T12:59:24;7.20;;;4.15;;
20036;SDS011;10179;42.640;23.312;2023-08-30T13:01:49;7.32;;;3.83;;
20036;SDS011;10179;42.640;23.312;2023-08-30T13:04:15;7.30;;;4.28;;
20036;SDS011;10179;42.640;23.312;2023-08-30T13:06:40;6.10;;;4.47;;
20036;SDS011;10179;42.640;23.312;2023-08-30T13:09:05;11.73;;;4.47;;
20036;SDS011;10179;42.640;23.312;2023-08-30T13:11:31;8.50;;;3.40;;
20036;SDS011;10179;42.640;23.312;2023-08-30T13:13:57;10.75;;;3.40;;
20036;SDS011;10179;42.640;23.312;2023-08-30T13:16:23;11.00;;;3.60;;
20036;SDS011;10179;42.640;23.312;2023-08-30T13:18:49;5.72;;;3.75;;
20036;SDS011;10179;42.640;23.312;2023-08-30T13:21:15;8.98;;;4.15;;
20036;SDS011;10179;42.640;23.312;2023-08-30T13:23:40;14.50;;;3.63;;
20036;SDS011;10179;42.640;23.312;2023-08-30T13:26:06;11.95;;;3.78;;
20036;SDS011;10179;42.640;23.312;2023-08-30T13:28:31;6.57;;;3.38;;
20036;SDS011;10179;42.640;23.312;2023-08-30T13:30:56;7.10;;;3.70;;
20036;SDS011;10179;42.640;23.312;2023-08-30T13:33:22;6.88;;;3.35;;
20036;SDS011;10179;42.640;23.312;2023-08-30T13:35:50;6.32;;;2.95;;
20036;SDS011;10179;42.640;23.312;2023-08-30T13:38:16;5.35;;;3.35;;
20036;SDS011;10179;42.640;23.312;2023-08-30T13:40:42;7.55;;;3.38;;
20036;SDS011;10179;42.640;23.312;2023-08-30T13:43:08;5.65;;;2.95;;
20036;SDS011;10179;42.640;23.312;2023-08-30T13:45:33;5.72;;;2.63;;
20036;SDS011;10179;42.640;23.312;2023-08-30T13:47:59;5.82;;;3.97;;
20036;SDS011;10179;42.640;23.312;2023-08-30T13:50:25;8.88;;;3.65;;
20036;SDS011;10179;42.640;23.312;2023-08-30T13:52:55;13.00;;;2.90;;
20036;SDS011;10179;42.640;23.312;2023-08-30T13:55:21;7.60;;;2.90;;
20036;SDS011;10179;42.640;23.312;2023-08-30T13:57:46;4.97;;;2.80;;
20036;SDS011;10179;42.640;23.312;2023-08-30T14:00:12;5.90;;;2.67;;
20036;SDS011;10179;42.640;23.312;2023-08-30T14:02:38;8.27;;;4.50;;
20036;SDS011;10179;42.640;23.312;2023-08-30T14:05:03;6.97;;;3.28;;
20036;SDS011;10179;42.640;23.312;2023-08-30T14:07:29;5.97;;;2.72;;
20036;SDS011;10179;42.640;23.312;2023-08-30T14:09:55;5.10;;;2.40;;
20036;SDS011;10179;42.640;23.312;2023-08-30T14:12:20;7.32;;;2.83;;
20036;SDS011;10179;42.640;23.312;2023-08-30T14:14:46;5.15;;;2.60;;
20036;SDS011;10179;42.640;23.312;2023-08-30T14:17:11;8.32;;;3.78;;
20036;SDS011;10179;42.640;23.312;2023-08-30T14:19:36;7.35;;;3.38;;
20036;SDS011;10179;42.640;23.312;2023-08-30T14:22:02;7.72;;;3.17;;
20036;SDS011;10179;42.640;23.312;2023-08-30T14:24:30;6.30;;;2.58;;
20036;SDS011;10179;42.640;23.312;2023-08-30T14:26:56;4.07;;;2.53;;
20036;SDS011;10179;42.640;23.312;2023-08-30T14:29:21;5.13;;;2.72;;
20036;SDS011;10179;42.640;23.312;2023-08-30T14:31:47;4.63;;;2.08;;